createdAt,value
2018-07-15T00:01:41.656Z,99078.63
2018-07-15T00:04:09.332Z,99074.45
2018-07-15T00:06:37.035Z,99077.89
2018-07-15T00:09:06.810Z,99076.61
2018-07-15T00:11:34.532Z,99079.25
2018-07-15T00:14:03.050Z,99070.33
2018-07-15T00:16:31.054Z,99071.95
2018-07-15T00:18:58.768Z,99071.44
2018-07-15T00:21:26.450Z,99068.80
2018-07-15T00:23:54.114Z,99074.33
2018-07-15T00:26:25.356Z,99074.08
2018-07-15T00:28:53.059Z,99071.44
2018-07-15T00:31:20.754Z,99074.87
2018-07-15T00:33:49.435Z,99068.56
2018-07-15T00:36:18.909Z,99067.80
2018-07-15T00:38:46.662Z,99063.30
2018-07-15T00:41:14.750Z,99064.91
2018-07-15T00:43:42.477Z,99063.06
2018-07-15T00:46:10.207Z,99059.12
2018-07-15T00:48:38.234Z,99062.06
2018-07-15T00:51:05.909Z,99058.13
2018-07-15T00:53:33.609Z,99055.21
2018-07-15T00:56:01.602Z,99056.27
2018-07-15T00:58:29.269Z,99055.50
2018-07-15T01:01:02.616Z,99054.18
2018-07-15T01:03:30.676Z,99048.09
2018-07-15T01:05:58.708Z,99047.84
2018-07-15T01:08:26.389Z,99047.05
2018-07-15T01:10:54.094Z,99046.55
2018-07-15T01:13:21.799Z,99045.27
2018-07-15T01:15:49.816Z,99040.28
2018-07-15T01:18:17.483Z,99036.09
2018-07-15T01:20:45.170Z,99037.42
2018-07-15T01:23:13.243Z,99036.66
2018-07-15T01:25:40.937Z,99032.97
2018-07-15T01:28:09.668Z,99034.29
2018-07-15T01:30:37.413Z,99031.12
2018-07-15T01:33:05.471Z,99035.88
2018-07-15T01:35:33.181Z,99030.34
2018-07-15T01:38:00.883Z,99032.98
2018-07-15T01:40:29.477Z,99032.98
2018-07-15T01:42:57.166Z,99036.38
2018-07-15T01:45:24.829Z,99036.12
2018-07-15T01:47:52.836Z,99032.18
2018-07-15T01:50:20.855Z,99035.88
2018-07-15T01:52:49.272Z,99026.66
2018-07-15T01:55:16.979Z,99025.35
2018-07-15T01:57:44.981Z,99026.92
2018-07-15T02:00:13.745Z,99029.56
2018-07-15T02:02:41.457Z,99026.41
2018-07-15T02:05:09.151Z,99023.53
2018-07-15T02:07:38.158Z,99021.67
2018-07-15T02:10:05.884Z,99023.53
2018-07-15T02:12:33.598Z,99010.89
2018-07-15T02:15:02.911Z,99015.64
2018-07-15T02:17:31.005Z,99020.08
2018-07-15T02:19:59.281Z,99015.36
2018-07-15T02:22:26.953Z,99016.39
2018-07-15T02:24:54.908Z,99018.52
2018-07-15T02:27:22.620Z,99017.21
2018-07-15T02:29:50.304Z,99019.09
2018-07-15T02:32:18.257Z,99016.97
2018-07-15T02:34:45.909Z,99017.23
2018-07-15T02:37:13.593Z,99015.41
2018-07-15T02:39:41.257Z,99015.41
2018-07-15T02:42:09.253Z,99014.86
2018-07-15T02:44:36.951Z,99020.66
2018-07-15T02:47:04.674Z,99021.98
2018-07-15T02:49:32.737Z,99015.66
2018-07-15T02:52:00.416Z,99015.39
2018-07-15T02:54:28.118Z,99014.34
2018-07-15T02:56:55.809Z,99021.72
2018-07-15T02:59:23.745Z,99018.03
2018-07-15T03:01:51.447Z,99017.49
2018-07-15T03:04:19.177Z,99019.87
2018-07-15T03:06:51.645Z,99017.23
2018-07-15T03:09:19.642Z,99009.34
2018-07-15T03:11:47.576Z,99011.20
2018-07-15T03:14:15.267Z,99014.89
2018-07-15T03:16:42.978Z,99008.31
2018-07-15T03:19:10.694Z,99014.09
2018-07-15T03:21:38.718Z,99010.14
2018-07-15T03:24:06.431Z,99011.20
2018-07-15T03:26:34.462Z,99010.14
2018-07-15T03:29:02.148Z,99007.77
2018-07-15T03:31:29.823Z,99012.00
2018-07-15T03:33:57.514Z,99008.57
2018-07-15T03:36:27.235Z,99012.77
2018-07-15T03:38:54.931Z,99014.62
2018-07-15T03:41:22.625Z,99015.95
2018-07-15T03:43:50.438Z,99005.42
2018-07-15T03:46:20.051Z,99007.00
2018-07-15T03:48:47.694Z,99008.57
2018-07-15T03:51:15.426Z,99003.05
2018-07-15T03:53:43.412Z,99002.00
2018-07-15T03:56:11.632Z,98998.30
2018-07-15T03:58:39.325Z,98990.67
2018-07-15T04:01:07.339Z,98995.41
2018-07-15T04:03:35.031Z,98995.67
2018-07-15T04:06:02.720Z,98994.09
2018-07-15T04:08:31.574Z,98991.72
2018-07-15T04:10:59.538Z,98992.78
2018-07-15T04:13:27.242Z,98988.84
2018-07-15T04:15:54.939Z,98989.09
2018-07-15T04:18:22.605Z,98993.03
2018-07-15T04:20:50.261Z,98990.94
2018-07-15T04:23:17.930Z,98987.25
2018-07-15T04:25:45.634Z,98985.43
2018-07-15T04:28:13.663Z,98989.09
2018-07-15T04:30:41.335Z,98985.15
2018-07-15T04:33:09.029Z,98978.06
2018-07-15T04:35:36.978Z,98979.37
2018-07-15T04:38:04.667Z,98971.75
2018-07-15T04:40:32.355Z,98982.78
2018-07-15T04:43:00.114Z,98975.69
2018-07-15T04:45:28.610Z,98976.21
2018-07-15T04:47:56.307Z,98973.32
2018-07-15T04:50:23.997Z,98969.63
2018-07-15T04:52:52.319Z,98974.89
2018-07-15T04:55:20.345Z,98973.58
2018-07-15T04:57:48.014Z,98972.52
2018-07-15T05:00:16.293Z,98974.63
2018-07-15T05:02:43.953Z,98970.69
2018-07-15T05:05:11.915Z,98970.68
2018-07-15T05:07:40.518Z,98970.16
2018-07-15T05:10:08.201Z,98979.08
2018-07-15T05:12:35.896Z,98976.98
2018-07-15T05:15:03.881Z,98977.75
2018-07-15T05:17:31.656Z,98981.18
2018-07-15T05:19:59.348Z,98980.92
2018-07-15T05:22:29.288Z,98986.17
2018-07-15T05:24:57.523Z,98992.46
2018-07-15T05:27:25.208Z,98990.88
2018-07-15T05:29:53.584Z,98995.34
2018-07-15T05:32:21.605Z,99000.88
2018-07-15T05:34:49.363Z,98995.89
2018-07-15T05:37:17.059Z,98997.98
2018-07-15T05:39:44.747Z,98998.51
2018-07-15T05:42:12.741Z,98998.21
2018-07-15T05:44:40.429Z,98995.30
2018-07-15T05:47:08.128Z,98995.03
2018-07-15T05:49:35.905Z,98998.97
2018-07-15T05:52:04.717Z,99003.42
2018-07-15T05:54:32.434Z,99002.89
2018-07-15T05:57:01.353Z,99005.50
2018-07-15T05:59:29.333Z,99004.42
2018-07-15T06:01:57.803Z,98994.37
2018-07-15T06:04:25.483Z,99001.48
2018-07-15T06:06:53.527Z,99001.72
2018-07-15T06:09:21.509Z,99005.65
2018-07-15T06:11:49.211Z,99002.98
2018-07-15T06:14:20.582Z,99001.64
2018-07-15T06:16:48.285Z,99003.70
2018-07-15T06:19:16.278Z,99004.22
2018-07-15T06:21:43.937Z,99004.70
2018-07-15T06:24:11.639Z,98998.11
2018-07-15T06:26:39.608Z,99003.59
2018-07-15T06:29:07.318Z,99006.45
2018-07-15T06:31:35.267Z,99002.71
2018-07-15T06:34:03.770Z,99001.89
2018-07-15T06:36:31.762Z,99006.06
2018-07-15T06:38:59.449Z,99003.64
2018-07-15T06:41:27.279Z,99002.01
2018-07-15T06:43:54.949Z,98999.30
2018-07-15T06:46:26.025Z,99001.08
2018-07-15T06:48:56.680Z,99003.38
2018-07-15T06:51:24.359Z,98998.55
2018-07-15T06:53:52.386Z,99000.61
2018-07-15T06:56:21.966Z,98999.52
2018-07-15T06:58:49.771Z,98998.36
2018-07-15T07:01:17.902Z,98997.52
2018-07-15T07:03:45.657Z,98996.09
2018-07-15T07:06:13.422Z,98998.62
2018-07-15T07:08:42.214Z,99001.97
2018-07-15T07:11:10.080Z,99005.30
2018-07-15T07:13:37.792Z,99003.61
2018-07-15T07:16:05.523Z,99005.91
2018-07-15T07:18:33.534Z,99002.90
2018-07-15T07:21:01.300Z,99006.25
2018-07-15T07:23:33.551Z,99008.83
2018-07-15T07:26:02.127Z,99002.08
2018-07-15T07:28:29.844Z,99001.97
2018-07-15T07:30:57.759Z,99008.17
2018-07-15T07:33:25.723Z,99006.21
2018-07-15T07:35:54.281Z,99004.53
2018-07-15T07:38:21.990Z,99009.71
2018-07-15T07:40:50.006Z,99011.16
2018-07-15T07:43:18.547Z,99005.23
2018-07-15T07:45:48.651Z,99010.41
2018-07-15T07:48:16.623Z,99011.89
2018-07-15T07:50:44.351Z,99005.54
2018-07-15T07:53:12.737Z,99005.14
2018-07-15T07:55:41.051Z,99002.65
2018-07-15T07:58:08.848Z,99001.51
2018-07-15T08:00:36.592Z,99010.94
2018-07-15T08:03:05.538Z,99011.61
2018-07-15T08:05:33.246Z,99006.73
2018-07-15T08:08:01.761Z,99004.48
2018-07-15T08:10:29.776Z,99008.31
2018-07-15T08:12:57.466Z,99008.98
2018-07-15T08:15:25.216Z,99007.04
2018-07-15T08:17:53.207Z,99007.13
2018-07-15T08:20:20.923Z,99008.34
2018-07-15T08:22:48.642Z,99009.52
2018-07-15T08:25:16.608Z,99001.94
2018-07-15T08:27:44.334Z,99007.09
2018-07-15T08:30:13.539Z,99007.44
2018-07-15T08:32:41.569Z,99010.17
2018-07-15T08:35:10.043Z,99001.02
2018-07-15T08:37:37.692Z,99003.27
2018-07-15T08:40:05.647Z,99005.70
2018-07-15T08:42:33.337Z,99007.86
2018-07-15T08:45:00.998Z,99014.91
2018-07-15T08:47:28.980Z,99008.16
2018-07-15T08:49:56.694Z,99017.52
2018-07-15T08:52:24.426Z,99007.19
2018-07-15T08:54:52.350Z,99010.76
2018-07-15T08:57:20.046Z,99012.67
2018-07-15T08:59:47.774Z,99013.75
2018-07-15T09:02:17.157Z,99008.25
2018-07-15T09:04:44.810Z,99013.08
2018-07-15T09:07:12.486Z,99009.95
2018-07-15T09:09:40.440Z,99006.23
2018-07-15T09:12:08.110Z,99009.17
2018-07-15T09:14:36.422Z,99009.76
2018-07-15T09:17:06.566Z,99007.66
2018-07-15T09:19:34.261Z,99005.22
2018-07-15T09:22:02.766Z,99003.58
2018-07-15T09:24:31.137Z,99003.29
2018-07-15T09:26:59.623Z,98998.80
2018-07-15T09:29:29.001Z,99002.05
2018-07-15T09:31:57.894Z,98996.73
2018-07-15T09:34:25.556Z,98998.59
2018-07-15T09:40:05.867Z,99004.95
2018-07-15T09:42:33.581Z,99003.53
2018-07-15T09:45:02.142Z,99007.23
2018-07-15T09:47:29.874Z,99010.92
2018-07-15T09:49:58.914Z,99004.50
2018-07-15T09:52:26.889Z,99004.48
2018-07-15T09:54:55.538Z,99002.55
2018-07-15T09:57:28.682Z,99000.44
2018-07-15T09:59:57.513Z,98996.72
2018-07-15T10:02:25.224Z,99003.92
2018-07-15T10:04:52.959Z,99004.01
2018-07-15T10:07:21.779Z,98999.83
2018-07-15T10:09:49.533Z,99001.22
2018-07-15T10:12:20.207Z,98998.06
2018-07-15T10:14:48.199Z,98998.47
2018-07-15T10:17:16.471Z,98997.88
2018-07-15T10:19:44.178Z,98987.37
2018-07-15T10:22:13.500Z,98993.81
2018-07-15T10:24:41.188Z,98984.60
2018-07-15T10:27:09.753Z,98988.23
2018-07-15T10:29:37.747Z,98994.52
2018-07-15T10:32:06.593Z,98985.20
2018-07-15T10:34:34.887Z,98983.89
2018-07-15T10:37:02.885Z,98988.14
2018-07-15T10:39:30.570Z,98988.54
2018-07-15T10:41:59.517Z,98985.14
2018-07-15T10:44:28.037Z,98987.77
2018-07-15T10:46:55.740Z,98987.47
2018-07-15T10:49:24.353Z,98988.83
2018-07-15T10:51:53.187Z,98982.95
2018-07-15T10:54:22.932Z,98983.40
2018-07-15T10:56:51.574Z,98982.02
2018-07-15T10:59:20.560Z,98979.13
2018-07-15T11:01:51.921Z,98978.22
2018-07-15T11:04:19.658Z,98975.67
2018-07-15T11:06:48.347Z,98977.79
2018-07-15T11:09:16.021Z,98967.09
2018-07-15T11:11:44.674Z,98972.20
2018-07-15T11:14:12.652Z,98960.11
2018-07-15T11:16:41.196Z,98957.63
2018-07-15T11:19:08.902Z,98959.14
2018-07-15T11:21:37.029Z,98954.21
2018-07-15T11:24:06.891Z,98957.95
2018-07-15T11:26:35.531Z,98954.78
2018-07-15T11:29:04.406Z,98952.19
2018-07-15T11:31:32.825Z,98950.34
2018-07-15T11:34:00.691Z,98955.59
2018-07-15T11:36:30.242Z,98953.99
2018-07-15T11:38:59.501Z,98953.08
2018-07-15T11:41:27.281Z,98949.66
2018-07-15T11:43:56.933Z,98952.91
2018-07-15T11:46:26.725Z,98943.08
2018-07-15T11:48:54.438Z,98942.36
2018-07-15T11:51:22.420Z,98944.34
2018-07-15T11:53:51.189Z,98941.18
2018-07-15T11:56:20.438Z,98933.56
2018-07-15T11:58:48.739Z,98931.98
2018-07-15T12:01:17.459Z,98936.32
2018-07-15T12:03:45.186Z,98933.40
2018-07-15T12:06:14.887Z,98926.13
2018-07-15T12:08:42.594Z,98921.99
2018-07-15T12:11:10.321Z,98918.37
2018-07-15T12:13:40.001Z,98918.37
2018-07-15T12:16:07.767Z,98904.57
2018-07-15T12:18:35.469Z,98908.74
2018-07-15T12:21:03.780Z,98916.59
2018-07-15T12:23:31.774Z,98912.70
2018-07-15T12:26:00.142Z,98910.16
2018-07-15T12:28:28.167Z,98910.89
2018-07-15T12:30:55.887Z,98909.99
2018-07-15T12:33:24.290Z,98907.14
2018-07-15T12:35:52.693Z,98896.30
2018-07-15T12:38:20.913Z,98898.28
2018-07-15T12:40:51.578Z,98895.30
2018-07-15T12:43:19.764Z,98893.83
2018-07-15T12:45:47.473Z,98889.77
2018-07-15T12:48:15.192Z,98887.75
2018-07-15T12:50:44.286Z,98876.91
2018-07-15T12:53:12.811Z,98881.80
2018-07-15T12:55:41.216Z,98880.97
2018-07-15T12:58:09.421Z,98884.17
2018-07-15T13:00:38.711Z,98875.20
2018-07-15T13:03:07.816Z,98870.70
2018-07-15T13:05:37.448Z,98869.28
2018-07-15T13:08:05.571Z,98866.73
2018-07-15T13:10:35.695Z,98862.44
2018-07-15T13:13:05.227Z,98857.77
2018-07-15T13:15:32.938Z,98860.38
2018-07-15T13:18:00.650Z,98853.20
2018-07-15T13:20:29.865Z,98852.02
2018-07-15T13:22:58.507Z,98850.31
2018-07-15T13:25:26.221Z,98844.98
2018-07-15T13:27:54.417Z,98849.84
2018-07-15T13:30:26.236Z,98836.53
2018-07-15T13:32:57.561Z,98847.70
2018-07-15T13:35:26.445Z,98842.00
2018-07-15T13:37:54.705Z,98837.21
2018-07-15T13:40:24.350Z,98828.61
2018-07-15T13:42:52.578Z,98824.89
2018-07-15T13:45:20.927Z,98828.02
2018-07-15T13:47:51.613Z,98824.37
2018-07-15T13:50:21.338Z,98828.19
2018-07-15T13:52:49.023Z,98828.29
2018-07-15T13:55:16.731Z,98825.76
2018-07-15T13:57:44.847Z,98817.84
2018-07-15T14:00:13.520Z,98821.42
2018-07-15T14:02:41.222Z,98818.66
2018-07-15T14:05:09.540Z,98818.75
2018-07-15T14:07:38.645Z,98818.95
2018-07-15T14:10:07.323Z,98808.00
2018-07-15T14:12:35.317Z,98811.87
2018-07-15T14:15:04.394Z,98809.08
2018-07-15T14:20:07.439Z,98796.21
2018-07-15T14:22:36.646Z,98790.90
2018-07-15T14:25:05.736Z,98798.48
2018-07-15T14:27:34.455Z,98794.72
2018-07-15T14:30:04.260Z,98792.22
2018-07-15T14:32:33.532Z,98791.05
2018-07-15T14:35:02.368Z,98793.03
2018-07-15T14:37:30.689Z,98786.53
2018-07-15T14:39:58.447Z,98784.84
2018-07-15T14:42:29.137Z,98785.50
2018-07-15T14:44:58.581Z,98783.81
2018-07-15T14:47:33.591Z,98784.00
2018-07-15T14:50:02.402Z,98782.46
2018-07-15T14:52:30.769Z,98774.21
2018-07-15T14:54:58.456Z,98781.06
2018-07-15T14:57:27.596Z,98785.69
2018-07-15T14:59:55.288Z,98781.06
2018-07-15T15:02:22.993Z,98775.24
2018-07-15T15:04:51.934Z,98779.48
2018-07-15T15:07:20.308Z,98775.84
2018-07-15T15:09:48.771Z,98776.72
2018-07-15T15:12:16.756Z,98778.59
2018-07-15T15:14:47.695Z,98778.76
2018-07-15T15:17:16.417Z,98776.25
2018-07-15T15:19:44.427Z,98769.41
2018-07-15T15:22:13.145Z,98773.16
2018-07-15T15:24:41.802Z,98768.91
2018-07-15T15:27:10.313Z,98765.61
2018-07-15T15:29:39.974Z,98769.36
2018-07-15T15:32:08.381Z,98759.91
2018-07-15T15:34:38.450Z,98755.69
2018-07-15T15:37:07.072Z,98768.25
2018-07-15T15:39:35.672Z,98764.87
2018-07-15T15:42:04.749Z,98763.36
2018-07-15T15:44:32.462Z,98760.50
2018-07-15T15:47:00.176Z,98764.00
2018-07-15T15:49:28.192Z,98758.17
2018-07-15T15:51:56.641Z,98758.73
2018-07-15T15:54:24.395Z,98752.95
2018-07-15T15:56:52.627Z,98750.05
2018-07-15T15:59:21.249Z,98748.45
2018-07-15T16:01:48.966Z,98751.37
2018-07-15T16:04:17.642Z,98746.01
2018-07-15T16:06:46.152Z,98742.00
2018-07-15T16:09:16.845Z,98745.13
2018-07-15T16:11:45.214Z,98735.91
2018-07-15T16:14:13.933Z,98735.71
2018-07-15T16:16:42.667Z,98738.02
2018-07-15T16:19:15.150Z,98740.12
2018-07-15T16:21:45.460Z,98736.43
2018-07-15T16:24:17.675Z,98736.84
2018-07-15T16:26:47.457Z,98739.92
2018-07-15T16:29:15.153Z,98736.65
2018-07-15T16:31:47.454Z,98732.98
2018-07-15T16:34:15.228Z,98739.57
2018-07-15T16:36:42.904Z,98740.37
2018-07-15T16:39:11.046Z,98735.33
2018-07-15T16:41:39.428Z,98736.84
2018-07-15T16:44:07.208Z,98735.67
2018-07-15T16:46:36.205Z,98738.74
2018-07-15T16:49:03.910Z,98733.34
2018-07-15T16:51:33.082Z,98734.66
2018-07-15T16:54:01.644Z,98741.17
2018-07-15T16:56:29.341Z,98743.84
2018-07-15T16:58:58.268Z,98739.55
2018-07-15T17:01:26.305Z,98742.66
2018-07-15T17:03:55.515Z,98742.30
